Time;durP1;ratioP1;P1;durP2;ratioP2;P2;SDS_P1;SDS_P2;PMS_P1;PMS_P2;Temp;Humidity;BMP_temperature;BMP_pressure;BME280_temperature;BME280_humidity;BME280_pressure;Samples;Min_cycle;Max_cycle;Signal;HPM_P1;HPM_P2
2022/08/19 00:01:49;;;;;;;7.95;3.75;;;;;;;19.17;100.00;97933.78;5096037;28;20032;-89
2022/08/19 00:04:17;;;;;;;8.90;3.65;;;;;;;18.98;100.00;97933.97;5074187;28;20020;-91
2022/08/19 00:06:44;;;;;;;8.30;3.30;;;;;;;19.15;100.00;97935.66;5063420;28;20421;-89
2022/08/19 00:09:13;;;;;;;8.77;3.28;;;;;;;18.92;100.00;97940.47;5057447;28;20020;-89
2022/08/19 00:11:39;;;;;;;9.20;3.15;;;;;;;18.96;100.00;97949.91;5078837;28;20067;-90
2022/08/19 00:14:09;;;;;;;6.93;2.85;;;;;;;18.88;100.00;97939.78;5061338;28;20024;-90
2022/08/19 00:16:36;;;;;;;8.30;3.03;;;;;;;18.73;100.00;97930.91;5080011;28;20050;-90
2022/08/19 00:19:03;;;;;;;7.47;2.60;;;;;;;18.91;100.00;97946.69;5076941;28;20055;-92
2022/08/19 00:21:29;;;;;;;9.38;2.90;;;;;;;18.55;100.00;97945.09;5078509;28;20123;-90
2022/08/19 00:23:57;;;;;;;8.93;2.17;;;;;;;17.68;100.00;97948.78;5072601;28;20103;-89
2022/08/19 00:26:24;;;;;;;9.93;2.20;;;;;;;17.29;100.00;97941.94;5054172;28;20036;-90
2022/08/19 00:28:50;;;;;;;11.93;2.55;;;;;;;17.39;100.00;97935.25;5060593;28;20030;-91
2022/08/19 00:31:16;;;;;;;16.10;2.42;;;;;;;17.18;100.00;97945.94;5059434;28;20032;-89
2022/08/19 00:33:42;;;;;;;10.65;2.30;;;;;;;17.40;100.00;97937.81;5076334;28;20128;-90
2022/08/19 00:36:12;;;;;;;11.25;2.10;;;;;;;17.28;100.00;97937.59;5078458;28;20127;-91
2022/08/19 00:38:42;;;;;;;11.70;2.30;;;;;;;17.26;100.00;97945.56;5075862;28;20806;-92
2022/08/19 00:41:08;;;;;;;10.23;2.30;;;;;;;17.34;100.00;97945.19;5072637;28;20036;-90
2022/08/19 00:44:08;;;;;;;12.32;2.58;;;;;;;17.53;100.00;97948.59;5060978;28;20020;-90
2022/08/19 00:46:38;;;;;;;11.38;2.50;;;;;;;17.11;100.00;97948.97;5075618;28;20025;-90
2022/08/19 00:49:14;;;;;;;10.55;2.45;;;;;;;17.40;100.00;97947.53;5082210;28;20368;-90
2022/08/19 00:51:41;;;;;;;10.02;2.42;;;;;;;17.01;100.00;97951.19;5054224;28;20036;-90
2022/08/19 00:54:07;;;;;;;14.52;2.72;;;;;;;17.14;100.00;97947.00;5056486;28;20044;-89
2022/08/19 00:56:33;;;;;;;13.95;2.78;;;;;;;17.05;100.00;97935.16;5056184;28;20043;-89
2022/08/19 00:59:01;;;;;;;12.63;2.95;;;;;;;17.22;100.00;97930.84;5053864;28;20115;-92
2022/08/19 01:01:27;;;;;;;14.45;2.20;;;;;;;16.96;100.00;97932.94;5058644;28;20028;-91
2022/08/19 01:03:52;;;;;;;15.68;2.42;;;;;;;17.46;100.00;97928.75;5077813;28;20032;-90
2022/08/19 01:06:18;;;;;;;10.38;2.33;;;;;;;17.30;100.00;97923.41;5060598;28;20028;-92
2022/08/19 01:08:44;;;;;;;9.65;2.30;;;;;;;17.20;100.00;97937.94;5052082;28;20036;-90
2022/08/19 01:11:09;;;;;;;11.07;2.10;;;;;;;16.95;100.00;97930.41;5071862;28;20038;-90
2022/08/19 01:13:36;;;;;;;11.77;2.10;;;;;;;17.15;100.00;97925.00;5048500;28;20102;-90
2022/08/19 01:16:06;;;;;;;12.95;2.05;;;;;;;17.06;100.00;97922.81;5051228;28;20093;-90
2022/08/19 01:18:35;;;;;;;13.13;2.70;;;;;;;16.74;100.00;97919.94;5059052;28;20028;-90
2022/08/19 01:21:07;;;;;;;11.45;2.72;;;;;;;17.33;100.00;97925.88;5077704;28;20080;-90
2022/08/19 01:23:45;;;;;;;12.57;2.67;;;;;;;17.08;100.00;97926.25;5066734;28;20094;-91
2022/08/19 01:26:16;;;;;;;14.57;2.50;;;;;;;17.09;100.00;97929.72;5059437;28;20028;-92
2022/08/19 01:28:44;;;;;;;11.68;2.13;;;;;;;16.97;100.00;97936.47;5087912;28;20488;-93
2022/08/19 01:31:18;;;;;;;9.85;2.15;;;;;;;17.22;100.00;97933.47;5058637;28;20033;-90
2022/08/19 01:33:44;;;;;;;12.82;2.45;;;;;;;16.90;100.00;97925.38;5095260;28;20008;-91
2022/08/19 01:36:13;;;;;;;13.60;2.50;;;;;;;17.07;100.00;97921.91;5065221;28;20391;-90
2022/08/19 01:38:42;;;;;;;12.32;2.17;;;;;;;16.96;100.00;97925.06;5078443;28;20028;-91
2022/08/19 01:41:10;;;;;;;9.52;2.00;;;;;;;16.76;100.00;97926.00;5075623;28;20051;-91
2022/08/19 01:43:36;;;;;;;14.25;2.30;;;;;;;16.67;100.00;97929.91;5098044;28;20041;-92
2022/08/19 01:46:03;;;;;;;12.48;2.40;;;;;;;16.55;100.00;97925.22;5089771;28;20036;-94
2022/08/19 01:48:34;;;;;;;15.00;2.83;;;;;;;16.73;100.00;97936.69;5064910;28;20444;-90
2022/08/19 01:51:00;;;;;;;11.25;2.22;;;;;;;16.64;100.00;97934.47;5076227;28;20038;-91
2022/08/19 01:53:25;;;;;;;12.73;2.58;;;;;;;16.60;100.00;97936.38;5077960;28;20420;-91
2022/08/19 01:55:51;;;;;;;12.20;2.38;;;;;;;16.58;100.00;97943.50;5066746;28;20028;-92
2022/08/19 01:58:22;;;;;;;13.73;2.53;;;;;;;16.13;100.00;97940.28;5075327;28;20034;-92
2022/08/19 02:00:48;;;;;;;13.52;2.38;;;;;;;16.78;100.00;97944.34;5070562;28;20028;-92
2022/08/19 02:03:14;;;;;;;12.88;2.22;;;;;;;16.57;100.00;97946.22;5053114;28;20039;-92
2022/08/19 02:05:41;;;;;;;12.00;2.20;;;;;;;16.27;100.00;97950.19;5055248;28;20039;-92
2022/08/19 02:08:07;;;;;;;14.57;2.20;;;;;;;15.94;100.00;97953.38;5076967;28;20023;-91
2022/08/19 02:10:33;;;;;;;12.50;2.17;;;;;;;16.03;100.00;97960.88;5060598;28;20036;-91
2022/08/19 02:12:59;;;;;;;10.82;2.45;;;;;;;16.14;100.00;97965.63;5050979;28;20024;-90
2022/08/19 02:15:25;;;;;;;14.27;2.70;;;;;;;16.08;100.00;97960.66;5069029;28;20051;-91
2022/08/19 02:17:51;;;;;;;14.88;2.78;;;;;;;16.28;100.00;97962.38;5055146;28;20047;-92
2022/08/19 02:20:17;;;;;;;8.57;2.08;;;;;;;16.01;100.00;97975.00;5058806;28;20040;-92
2022/08/19 02:22:43;;;;;;;13.25;2.75;;;;;;;15.96;100.00;97967.31;5062329;28;20070;-93
2022/08/19 02:25:11;;;;;;;14.82;2.15;;;;;;;16.08;100.00;97973.81;5072039;28;20043;-90
2022/08/19 02:27:37;;;;;;;12.85;2.33;;;;;;;15.70;100.00;97968.41;5070672;28;20558;-90
2022/08/19 02:30:04;;;;;;;14.15;2.40;;;;;;;16.24;100.00;97971.34;5047723;28;20067;-90
2022/08/19 02:32:30;;;;;;;13.38;2.40;;;;;;;16.28;100.00;97965.03;5070130;28;20024;-90
2022/08/19 02:34:56;;;;;;;13.25;2.55;;;;;;;16.13;100.00;97966.59;5050308;28;20024;-90
2022/08/19 02:40:06;;;;;;;11.80;2.22;;;;;;;16.17;100.00;97967.28;5071959;28;20086;-90
2022/08/19 02:42:32;;;;;;;18.70;2.30;;;;;;;16.04;100.00;97954.66;5061353;28;20063;-90
2022/08/19 02:44:58;;;;;;;11.50;2.30;;;;;;;15.87;100.00;97958.03;5072529;28;20048;-92
2022/08/19 02:47:23;;;;;;;12.88;2.15;;;;;;;15.93;100.00;97962.19;5050441;28;20539;-92
2022/08/19 02:49:52;;;;;;;13.95;2.22;;;;;;;15.99;100.00;97968.94;5074885;28;20027;-91
2022/08/19 02:52:17;;;;;;;14.85;2.40;;;;;;;15.53;100.00;97966.47;5049730;28;20060;-91
2022/08/19 02:54:44;;;;;;;18.70;2.97;;;;;;;17.11;100.00;97973.50;5045580;28;20163;-90
2022/08/19 02:57:10;;;;;;;13.52;2.10;;;;;;;16.06;100.00;97972.16;5052003;28;20028;-92
2022/08/19 02:59:35;;;;;;;14.07;2.30;;;;;;;15.57;100.00;97973.31;5049783;28;20040;-91
2022/08/19 03:02:01;;;;;;;15.73;2.78;;;;;;;16.12;100.00;97974.53;5050966;28;20595;-90
2022/08/19 03:04:27;;;;;;;19.05;2.63;;;;;;;16.18;100.00;97971.63;5051095;28;20028;-91
2022/08/19 03:06:52;;;;;;;13.63;2.20;;;;;;;16.13;100.00;97974.47;5055068;28;20035;-91
2022/08/19 03:09:19;;;;;;;16.15;2.40;;;;;;;16.16;100.00;97978.75;5047379;28;20140;-91
2022/08/19 03:11:45;;;;;;;14.55;2.10;;;;;;;16.23;100.00;97977.56;5049018;28;20036;-93
2022/08/19 03:14:12;;;;;;;12.75;3.17;;;;;;;16.32;100.00;97985.00;5049197;28;20025;-91
2022/08/19 03:16:50;;;;;;;15.70;2.08;;;;;;;16.25;100.00;97988.84;5045642;28;20088;-93
2022/08/19 03:19:18;;;;;;;11.60;2.30;;;;;;;16.26;100.00;97984.47;5053381;28;20126;-90
2022/08/19 03:21:44;;;;;;;12.82;2.72;;;;;;;16.40;100.00;97986.47;5053009;28;20106;-91
2022/08/19 03:24:11;;;;;;;19.10;2.70;;;;;;;16.06;100.00;97986.19;5048053;28;20162;-92
2022/08/19 03:26:42;;;;;;;14.00;2.97;;;;;;;16.29;100.00;97993.03;5049988;28;20477;-92
2022/08/19 03:29:10;;;;;;;18.80;2.65;;;;;;;15.83;100.00;97988.03;5047321;28;20060;-91
2022/08/19 03:31:37;;;;;;;15.25;2.25;;;;;;;15.86;100.00;97993.13;5050367;28;20048;-90
2022/08/19 03:34:02;;;;;;;12.32;2.35;;;;;;;15.86;100.00;97998.41;5048845;28;20041;-92
2022/08/19 03:36:28;;;;;;;13.88;2.00;;;;;;;15.85;100.00;97996.72;5045264;28;20089;-90
2022/08/19 03:39:00;;;;;;;15.15;2.72;;;;;;;15.59;100.00;97989.88;5054644;28;20033;-92
2022/08/19 03:41:47;;;;;;;15.27;2.30;;;;;;;15.52;100.00;97994.53;5050420;28;20032;-90
2022/08/19 03:44:13;;;;;;;20.88;2.58;;;;;;;15.50;100.00;97999.03;5051146;28;20505;-91
2022/08/19 03:46:39;;;;;;;16.88;2.58;;;;;;;15.37;100.00;98008.31;5065922;28;20033;-91
2022/08/19 03:49:08;;;;;;;13.23;2.50;;;;;;;15.35;100.00;98012.75;5078067;28;21187;-91
2022/08/19 03:51:37;;;;;;;15.40;2.78;;;;;;;15.74;100.00;98019.06;5064422;28;20040;-91
2022/08/19 03:54:07;;;;;;;14.50;2.90;;;;;;;15.55;100.00;98009.34;5063749;28;20519;-91
2022/08/19 03:56:38;;;;;;;15.40;2.60;;;;;;;15.38;100.00;98017.03;5057660;28;20771;-92
2022/08/19 03:59:06;;;;;;;15.40;2.75;;;;;;;15.36;100.00;98010.09;5085701;28;20028;-91
2022/08/19 04:01:33;;;;;;;13.27;2.35;;;;;;;15.39;100.00;98010.88;5074280;28;20559;-92
2022/08/19 04:05:07;;;;;;;11.02;2.17;;;;;;;15.64;100.00;98006.34;5081259;28;20031;-91
2022/08/19 04:07:33;;;;;;;17.48;2.22;;;;;;;15.90;100.00;98008.81;5069721;28;20044;-91
2022/08/19 04:10:00;;;;;;;16.65;2.90;;;;;;;15.73;100.00;98014.72;5082918;28;20028;-92
2022/08/19 04:12:25;;;;;;;17.00;2.80;;;;;;;15.50;100.00;98020.03;5082785;28;20027;-93
2022/08/19 04:14:51;;;;;;;12.85;2.20;;;;;;;15.61;100.00;98019.59;5078265;28;20028;-92
2022/08/19 04:17:16;;;;;;;15.85;2.72;;;;;;;15.42;100.00;98013.38;5069856;28;20050;-91
2022/08/19 04:19:42;;;;;;;19.58;2.78;;;;;;;15.32;100.00;98013.75;5073902;28;20024;-89
2022/08/19 04:22:09;;;;;;;13.18;2.38;;;;;;;15.49;100.00;98028.84;5052172;28;20127;-89
2022/08/19 04:24:38;;;;;;;13.30;2.80;;;;;;;15.60;100.00;98030.16;5071812;28;20429;-92
2022/08/19 04:27:05;;;;;;;17.65;2.60;;;;;;;15.36;100.00;98041.63;5053091;28;20032;-89
2022/08/19 04:29:31;;;;;;;16.55;2.70;;;;;;;15.45;100.00;98044.78;5056018;28;20066;-91
2022/08/19 04:31:58;;;;;;;17.55;2.95;;;;;;;15.60;100.00;98035.41;5078935;28;20411;-92
2022/08/19 04:34:26;;;;;;;14.15;2.15;;;;;;;15.53;100.00;98034.81;5055643;28;20024;-88
2022/08/19 04:36:54;;;;;;;15.68;2.53;;;;;;;15.42;100.00;98032.63;5080379;28;20036;-91
2022/08/19 04:42:38;;;;;;;13.05;2.28;;;;;;;15.63;100.00;98030.03;5055100;28;20092;-92
2022/08/19 04:44:58;;;;;;;18.98;2.70;;;;;;;15.26;100.00;98040.25;5070105;28;20075;-91
2022/08/19 04:47:24;;;;;;;18.38;2.47;;;;;;;15.46;100.00;98046.50;5070771;28;20112;-91
2022/08/19 04:49:50;;;;;;;13.82;2.53;;;;;;;15.52;100.00;98046.25;5081457;28;20127;-92
2022/08/19 04:52:15;;;;;;;18.95;2.63;;;;;;;15.38;100.00;98040.69;5069170;28;20032;-91
2022/08/19 04:54:41;;;;;;;16.05;2.95;;;;;;;15.29;100.00;98041.91;5051485;28;20049;-90
2022/08/19 04:57:11;;;;;;;15.77;2.40;;;;;;;15.40;100.00;98052.00;5046807;28;20024;-92
2022/08/19 04:59:38;;;;;;;18.08;2.60;;;;;;;15.62;100.00;98050.22;5057531;28;20020;-92
2022/08/19 05:02:05;;;;;;;13.57;2.65;;;;;;;15.92;100.00;98049.91;5051453;28;20032;-90
2022/08/19 05:04:31;;;;;;;14.95;2.58;;;;;;;15.74;100.00;98061.13;5056411;28;20036;-90
2022/08/19 05:06:57;;;;;;;14.57;2.80;;;;;;;15.86;100.00;98060.66;5051510;28;20128;-90
2022/08/19 05:09:23;;;;;;;16.30;2.90;;;;;;;15.69;100.00;98066.59;5054575;28;20576;-90
2022/08/19 05:11:51;;;;;;;14.02;2.10;;;;;;;15.68;100.00;98063.13;5046483;28;20027;-90
2022/08/19 05:14:16;;;;;;;12.95;2.38;;;;;;;15.59;100.00;98060.84;5047620;28;20044;-91
2022/08/19 05:16:42;;;;;;;11.55;2.10;;;;;;;15.59;100.00;98062.59;5047160;28;20037;-91
2022/08/19 05:24:36;;;;;;;13.52;2.13;;;;;;;15.26;100.00;98074.41;5052626;28;20031;-90
2022/08/19 05:27:04;;;;;;;18.60;2.60;;;;;;;15.02;100.00;98077.06;5050240;28;20754;-93
2022/08/19 05:29:34;;;;;;;14.45;3.00;;;;;;;14.62;100.00;98086.41;5051340;28;20068;-91
2022/08/19 05:32:00;;;;;;;14.07;2.35;;;;;;;14.87;100.00;98101.28;5057010;28;20054;-91
2022/08/19 05:34:26;;;;;;;17.80;2.45;;;;;;;14.79;100.00;98098.06;5051157;28;20125;-93
2022/08/19 05:36:58;;;;;;;16.67;2.58;;;;;;;14.85;100.00;98108.38;5054919;28;20139;-92
2022/08/19 05:39:26;;;;;;;16.20;2.13;;;;;;;14.91;100.00;98107.28;5047734;28;20036;-92
2022/08/19 05:41:56;;;;;;;9.93;2.33;;;;;;;15.01;100.00;98120.00;5052483;28;20033;-92
2022/08/19 05:44:31;;;;;;;14.82;2.70;;;;;;;15.20;100.00;98124.56;5054160;28;20104;-92
2022/08/19 05:46:57;;;;;;;8.80;2.50;;;;;;;15.00;100.00;98120.94;5050215;28;20029;-91
2022/08/19 05:49:25;;;;;;;16.67;2.60;;;;;;;15.24;100.00;98126.16;5054124;28;20037;-94
2022/08/19 05:51:51;;;;;;;14.68;2.10;;;;;;;15.09;100.00;98127.59;5048810;28;20909;-91
2022/08/19 05:54:18;;;;;;;17.58;2.90;;;;;;;15.07;100.00;98125.94;5047528;28;20041;-93
2022/08/19 05:56:47;;;;;;;12.75;2.53;;;;;;;15.03;100.00;98127.84;5056042;28;20029;-91
2022/08/19 05:59:13;;;;;;;15.43;2.42;;;;;;;15.13;100.00;98130.97;5058888;28;20071;-90
2022/08/19 06:01:41;;;;;;;13.50;2.40;;;;;;;15.33;100.00;98117.91;5056332;28;20032;-90
2022/08/19 06:04:07;;;;;;;12.32;2.90;;;;;;;15.34;100.00;98116.16;5074749;28;20024;-91
2022/08/19 06:06:40;;;;;;;11.98;2.25;;;;;;;15.27;100.00;98114.69;5074252;28;20037;-92
2022/08/19 06:09:07;;;;;;;13.38;2.65;;;;;;;15.28;100.00;98119.00;5056692;28;20067;-89
2022/08/19 06:11:35;;;;;;;13.60;2.35;;;;;;;15.36;100.00;98117.81;5057359;28;20033;-91
2022/08/19 06:14:17;;;;;;;12.75;2.28;;;;;;;15.45;100.00;98108.72;5067551;28;20082;-91
2022/08/19 06:16:44;;;;;;;16.80;2.88;;;;;;;15.12;100.00;98108.25;5078573;28;20578;-91
2022/08/19 06:19:13;;;;;;;14.63;3.03;;;;;;;15.07;100.00;98116.28;5052936;28;20021;-89
2022/08/19 06:21:41;;;;;;;16.67;2.80;;;;;;;15.18;100.00;98113.25;5050778;28;20024;-89
2022/08/19 06:24:09;;;;;;;12.05;2.55;;;;;;;15.07;100.00;98118.91;5051498;28;20071;-91
2022/08/19 06:26:37;;;;;;;15.05;2.55;;;;;;;15.76;100.00;98117.16;5051275;28;20039;-92
2022/08/19 06:29:05;;;;;;;12.00;2.13;;;;;;;15.48;100.00;98121.72;5058093;28;20035;-91
2022/08/19 06:31:33;;;;;;;15.48;2.67;;;;;;;15.57;100.00;98125.75;5052355;28;20025;-92
2022/08/19 06:34:04;;;;;;;18.50;2.67;;;;;;;15.58;100.00;98126.63;5061998;28;20056;-90
2022/08/19 06:36:36;;;;;;;17.33;2.92;;;;;;;15.35;100.00;98123.97;5051961;28;20030;-91
2022/08/19 06:39:09;;;;;;;16.63;2.67;;;;;;;15.29;100.00;98125.97;5052430;28;20116;-90
2022/08/19 06:41:42;;;;;;;11.90;2.70;;;;;;;15.08;100.00;98127.66;5052569;28;20277;-89
2022/08/19 06:44:08;;;;;;;13.43;2.55;;;;;;;16.16;100.00;98120.81;5048914;28;20885;-90
2022/08/19 06:46:34;;;;;;;13.38;2.53;;;;;;;15.72;100.00;98115.56;5050377;28;20131;-90
2022/08/19 06:49:00;;;;;;;12.80;2.63;;;;;;;15.95;100.00;98112.88;5052659;28;20112;-91
2022/08/19 06:51:26;;;;;;;20.70;2.63;;;;;;;15.93;100.00;98109.44;5047459;28;20387;-91
2022/08/19 06:53:54;;;;;;;13.85;3.00;;;;;;;16.26;100.00;98114.22;5057153;28;20051;-92
2022/08/19 06:56:30;;;;;;;13.00;2.92;;;;;;;15.95;100.00;98112.00;5056856;28;20024;-91
2022/08/19 06:58:57;;;;;;;12.35;2.33;;;;;;;16.45;100.00;98118.69;5047673;28;20036;-90
2022/08/19 07:01:22;;;;;;;12.23;2.40;;;;;;;16.36;100.00;98112.06;5052316;28;20056;-90
2022/08/19 07:03:48;;;;;;;13.90;2.40;;;;;;;16.19;100.00;98110.16;5050172;28;20025;-90
2022/08/19 07:06:17;;;;;;;13.38;2.53;;;;;;;16.30;100.00;98117.59;5055936;28;20116;-91
2022/08/19 07:08:44;;;;;;;12.00;2.50;;;;;;;16.08;100.00;98109.75;5061330;28;20488;-92
2022/08/19 07:11:12;;;;;;;16.15;2.80;;;;;;;16.11;100.00;98114.88;5056741;28;20062;-90
2022/08/19 07:13:39;;;;;;;15.38;2.78;;;;;;;16.09;100.00;98107.03;5047843;28;20794;-90
2022/08/19 07:16:08;;;;;;;13.52;2.15;;;;;;;15.95;100.00;98112.88;5051283;28;20535;-92
2022/08/19 07:18:35;;;;;;;14.65;2.30;;;;;;;16.17;100.00;98118.09;5059125;28;20028;-92
2022/08/19 07:21:14;;;;;;;16.90;2.85;;;;;;;16.00;100.00;98115.31;5054520;28;20117;-90
2022/08/19 07:23:41;;;;;;;15.30;2.40;;;;;;;16.37;100.00;98111.97;5048327;28;20523;-89
2022/08/19 07:26:15;;;;;;;12.93;2.53;;;;;;;16.49;100.00;98107.97;5053004;28;20024;-91
2022/08/19 07:28:42;;;;;;;14.88;2.55;;;;;;;16.33;100.00;98106.94;5051807;28;20387;-92
2022/08/19 07:31:13;;;;;;;12.32;2.70;;;;;;;16.16;100.00;98107.66;5056548;28;20062;-92
2022/08/19 07:33:41;;;;;;;15.90;2.65;;;;;;;16.25;100.00;98104.59;5047071;28;20131;-90
2022/08/19 07:36:11;;;;;;;15.88;2.60;;;;;;;16.54;100.00;98111.25;5056403;28;20035;-89
2022/08/19 07:38:38;;;;;;;14.90;2.20;;;;;;;16.43;100.00;98104.75;5057538;28;20033;-92
2022/08/19 07:41:06;;;;;;;13.18;2.10;;;;;;;16.64;100.00;98106.44;5055411;28;20135;-92
2022/08/19 07:43:33;;;;;;;15.25;2.85;;;;;;;16.65;100.00;98117.84;5061777;28;20542;-89
2022/08/19 07:45:58;;;;;;;16.50;3.13;;;;;;;16.49;100.00;98121.13;5051149;28;20068;-91
2022/08/19 07:48:25;;;;;;;19.27;2.60;;;;;;;16.62;100.00;98123.22;5057698;28;20223;-90
2022/08/19 07:50:56;;;;;;;13.05;2.30;;;;;;;16.61;100.00;98119.72;5060125;28;20036;-90
2022/08/19 07:53:24;;;;;;;12.00;1.88;;;;;;;16.99;100.00;98117.22;5058397;28;20028;-91
2022/08/19 07:55:50;;;;;;;18.52;2.15;;;;;;;16.65;100.00;98110.78;5075684;28;20145;-91
2022/08/19 07:58:19;;;;;;;13.95;2.58;;;;;;;16.84;100.00;98113.47;5052421;28;20028;-90
2022/08/19 08:00:47;;;;;;;12.23;2.45;;;;;;;16.81;100.00;98112.72;5053090;28;20805;-91
2022/08/19 08:03:15;;;;;;;19.55;2.50;;;;;;;16.92;100.00;98113.13;5057548;28;20399;-94
2022/08/19 08:11:11;;;;;;;15.63;2.50;;;;;;;17.29;100.00;98126.41;5083063;28;20046;-94
2022/08/19 08:13:36;;;;;;;20.08;2.83;;;;;;;17.20;100.00;98135.56;5055882;28;20567;-91
2022/08/19 08:16:02;;;;;;;10.73;2.10;;;;;;;17.16;100.00;98131.38;5074230;28;20040;-92
2022/08/19 08:18:28;;;;;;;14.38;2.33;;;;;;;17.50;100.00;98137.72;5085208;28;20051;-93
2022/08/19 08:20:55;;;;;;;13.65;2.28;;;;;;;16.79;100.00;98136.50;5076428;28;20040;-94
2022/08/19 08:23:24;;;;;;;13.30;2.53;;;;;;;17.11;100.00;98146.56;5071555;28;20051;-92
2022/08/19 08:25:52;;;;;;;14.52;2.35;;;;;;;16.91;100.00;98142.16;5058652;28;20035;-94
2022/08/19 08:28:18;;;;;;;13.15;2.83;;;;;;;17.11;100.00;98151.81;5059041;28;20375;-91
2022/08/19 08:30:47;;;;;;;17.92;2.53;;;;;;;16.97;100.00;98139.28;5093347;28;20016;-92
2022/08/19 08:33:16;;;;;;;13.70;2.60;;;;;;;16.65;100.00;98149.44;5103408;28;20035;-91
2022/08/19 08:35:42;;;;;;;13.23;2.13;;;;;;;16.66;100.00;98151.13;5074367;28;20047;-91
2022/08/19 08:38:07;;;;;;;12.38;2.38;;;;;;;16.44;100.00;98145.94;5062172;28;20499;-92
2022/08/19 08:40:43;;;;;;;15.93;2.85;;;;;;;17.39;100.00;98148.75;5076456;28;20764;-91
2022/08/19 08:43:34;;;;;;;11.25;2.38;;;;;;;17.92;100.00;98144.53;5057286;28;20088;-93
2022/08/19 08:46:07;;;;;;;14.45;2.05;;;;;;;17.70;100.00;98137.63;5048825;28;20032;-93
2022/08/19 08:48:39;;;;;;;15.10;2.55;;;;;;;17.58;100.00;98127.66;5051516;28;20032;-93
2022/08/19 08:51:32;;;;;;;19.48;2.80;;;;;;;17.93;100.00;98124.28;5062364;28;20612;-93
2022/08/19 08:53:59;;;;;;;11.75;2.40;;;;;;;17.75;100.00;98124.22;5062481;28;20052;-93
2022/08/19 08:56:25;;;;;;;11.90;2.30;;;;;;;17.98;100.00;98124.91;5047140;28;20033;-92
2022/08/19 08:59:09;;;;;;;13.77;2.47;;;;;;;18.13;100.00;98125.94;5058905;28;20029;-91
2022/08/19 09:01:36;;;;;;;11.05;2.03;;;;;;;17.26;100.00;98121.25;5051001;28;20117;-90
2022/08/19 09:04:07;;;;;;;13.93;2.20;;;;;;;17.57;100.00;98133.88;5054748;28;20027;-92
2022/08/19 09:07:17;;;;;;;14.88;2.17;;;;;;;17.68;100.00;98138.63;5045417;28;20118;-92
2022/08/19 09:09:46;;;;;;;16.88;2.33;;;;;;;17.40;100.00;98134.66;5048592;28;20067;-92
2022/08/19 09:12:39;;;;;;;13.10;2.10;;;;;;;17.61;100.00;98145.97;5060766;28;20115;-93
2022/08/19 09:15:08;;;;;;;11.40;2.07;;;;;;;18.08;100.00;98139.34;5059176;28;20035;-90
2022/08/19 09:17:38;;;;;;;17.13;2.63;;;;;;;17.31;100.00;98133.28;5057719;28;20036;-91
2022/08/19 09:20:19;;;;;;;12.55;2.30;;;;;;;17.30;100.00;98143.91;5059702;28;20028;-91
2022/08/19 09:22:44;;;;;;;14.90;2.67;;;;;;;17.57;100.00;98141.78;5053745;28;20063;-91
2022/08/19 09:25:13;;;;;;;12.93;2.33;;;;;;;17.89;100.00;98153.41;5051783;28;20017;-91
2022/08/19 09:27:41;;;;;;;12.15;2.88;;;;;;;18.38;100.00;98142.22;5053212;28;20059;-92
2022/08/19 09:30:10;;;;;;;14.35;2.78;;;;;;;17.88;100.00;98140.28;5055076;28;20046;-90
2022/08/19 09:32:36;;;;;;;14.93;2.42;;;;;;;18.28;100.00;98148.91;5055189;28;20024;-91
2022/08/19 09:35:02;;;;;;;12.68;2.80;;;;;;;18.65;100.00;98147.03;5060830;28;20032;-91
2022/08/19 09:37:28;;;;;;;12.25;2.20;;;;;;;18.16;100.00;98147.75;5056555;28;20081;-91
2022/08/19 09:39:54;;;;;;;13.68;2.33;;;;;;;18.04;100.00;98143.91;5053190;28;20058;-93
2022/08/19 09:42:20;;;;;;;13.77;2.00;;;;;;;18.06;100.00;98141.22;5055174;28;20051;-93
2022/08/19 09:44:46;;;;;;;12.48;2.10;;;;;;;18.11;100.00;98147.13;5063205;28;20036;-95
2022/08/19 09:47:13;;;;;;;12.43;2.22;;;;;;;17.98;100.00;98138.97;5061488;28;20074;-93
2022/08/19 09:49:48;;;;;;;13.13;2.10;;;;;;;17.78;100.00;98129.34;5066194;28;20025;-95
2022/08/19 09:52:15;;;;;;;15.18;2.47;;;;;;;18.04;100.00;98136.00;5067491;28;20117;-94
2022/08/19 09:54:41;;;;;;;12.63;2.30;;;;;;;18.49;100.00;98141.69;5061768;28;20082;-90
2022/08/19 09:57:08;;;;;;;12.68;1.90;;;;;;;18.07;100.00;98127.94;5056719;28;20032;-91
2022/08/19 09:59:35;;;;;;;10.85;1.85;;;;;;;17.96;100.00;98140.81;5055088;28;20061;-92
2022/08/19 10:02:01;;;;;;;12.23;1.88;;;;;;;17.98;100.00;98151.28;5058081;28;20055;-92
2022/08/19 10:07:21;;;;;;;14.68;2.08;;;;;;;18.59;100.00;98148.22;5062425;28;20137;-92
2022/08/19 10:09:47;;;;;;;11.70;2.17;;;;;;;18.81;100.00;98143.59;5057756;28;20049;-96
2022/08/19 10:12:15;;;;;;;13.35;1.98;;;;;;;19.03;100.00;98143.34;5061039;28;20454;-92
2022/08/19 10:14:42;;;;;;;11.32;1.73;;;;;;;18.57;100.00;98146.59;5065231;28;20021;-93
2022/08/19 10:27:26;;;;;;;12.77;2.33;;;;;;;18.36;100.00;98130.91;4952215;28;20037;-92
2022/08/19 10:30:06;;;;;;;12.57;2.05;;;;;;;18.95;100.00;98140.25;4946056;29;20035;-92
2022/08/19 10:32:41;;;;;;;11.63;2.13;;;;;;;20.43;100.00;98127.56;4951183;29;20276;-94
2022/08/19 10:35:18;;;;;;;11.43;2.05;;;;;;;20.39;100.00;98127.81;4956686;28;20062;-92
2022/08/19 10:37:45;;;;;;;13.85;2.10;;;;;;;19.45;100.00;98129.56;4961415;28;20043;-91
2022/08/19 10:40:13;;;;;;;16.48;2.50;;;;;;;19.17;100.00;98127.59;4951948;29;20043;-93
2022/08/19 10:42:42;;;;;;;12.60;2.15;;;;;;;19.22;100.00;98135.25;4967858;29;20046;-93
2022/08/19 10:45:14;;;;;;;10.52;2.13;;;;;;;19.69;100.00;98133.56;4962763;29;20031;-93
2022/08/19 10:47:40;;;;;;;12.27;2.42;;;;;;;19.61;100.00;98140.16;4940093;29;20050;-94
2022/08/19 10:52:50;;;;;;;14.35;2.10;;;;;;;19.46;100.00;98135.72;4942873;29;20090;-92
2022/08/19 10:58:24;;;;;;;11.63;2.17;;;;;;;18.35;100.00;98144.19;4968271;28;20258;-91
2022/08/19 11:00:56;;;;;;;10.05;1.67;;;;;;;18.56;100.00;98151.00;5013112;28;20041;-92
2022/08/19 11:03:23;;;;;;;11.45;1.83;;;;;;;17.98;100.00;98140.72;5063596;28;20036;-92
2022/08/19 11:06:03;;;;;;;13.55;2.22;;;;;;;18.85;100.00;98145.13;5062482;28;20488;-93
2022/08/19 11:08:30;;;;;;;14.05;1.90;;;;;;;19.81;100.00;98127.63;5051145;28;20734;-92
2022/08/19 11:11:00;;;;;;;8.60;1.65;;;;;;;19.97;100.00;98121.44;5065838;28;20032;-93
2022/08/19 11:13:28;;;;;;;6.65;1.30;;;;;;;20.48;100.00;98129.06;5054585;28;20040;-93
2022/08/19 11:16:03;;;;;;;8.00;1.30;;;;;;;19.90;100.00;98128.88;5047454;28;20045;-92
2022/08/19 11:18:29;;;;;;;7.35;1.33;;;;;;;20.08;100.00;98138.44;5052770;28;20193;-91
2022/08/19 11:20:54;;;;;;;8.77;1.70;;;;;;;20.05;100.00;98129.81;5052176;28;20639;-91
2022/08/19 11:23:21;;;;;;;8.63;1.70;;;;;;;20.27;100.00;98132.88;5058037;28;20025;-92
2022/08/19 11:25:46;;;;;;;11.48;1.73;;;;;;;20.50;100.00;98124.53;5047368;28;20024;-91
2022/08/19 11:28:12;;;;;;;12.27;1.77;;;;;;;20.97;100.00;98121.69;5048824;28;20024;-93
2022/08/19 11:30:39;;;;;;;8.60;1.50;;;;;;;20.34;100.00;98122.78;5055615;28;20116;-93
2022/08/19 11:33:05;;;;;;;5.63;0.98;;;;;;;20.27;100.00;98124.94;5049907;28;20079;-93
2022/08/19 11:35:31;;;;;;;7.50;1.30;;;;;;;20.13;100.00;98117.81;5049190;28;20037;-93
2022/08/19 11:38:01;;;;;;;8.23;1.40;;;;;;;21.14;100.00;98119.75;5057540;28;20031;-92
2022/08/19 11:40:27;;;;;;;5.78;1.30;;;;;;;21.33;100.00;98118.63;5050470;28;20055;-92
2022/08/19 11:42:55;;;;;;;11.00;1.65;;;;;;;21.40;100.00;98115.47;5056008;28;20036;-94
2022/08/19 11:45:27;;;;;;;8.80;1.70;;;;;;;21.72;100.00;98107.25;5056347;28;20020;-91
2022/08/19 11:47:53;;;;;;;8.38;1.50;;;;;;;20.98;100.00;98106.63;5050857;28;20044;-93
2022/08/19 11:50:18;;;;;;;10.55;1.63;;;;;;;20.18;100.00;98122.88;5055804;28;20029;-92
2022/08/19 11:52:45;;;;;;;9.27;1.67;;;;;;;19.64;100.00;98123.25;5055404;28;20033;-91
2022/08/19 11:55:13;;;;;;;9.48;1.83;;;;;;;20.21;100.00;98129.75;5058917;28;20048;-94
2022/08/19 11:57:43;;;;;;;13.77;1.90;;;;;;;19.98;100.00;98126.66;5058465;28;20029;-94
2022/08/19 12:00:13;;;;;;;11.18;2.05;;;;;;;20.10;100.00;98128.59;5065156;28;20032;-92
2022/08/19 12:02:39;;;;;;;9.82;1.70;;;;;;;20.79;100.00;98136.03;5060565;28;20033;-94